Terminal Aerodrome Forecast
Issued by NWS

Home | Current Version | Previous Version | Text Only | Print | Product List | Glossary Off
Versions: 1 2 3 4 5 6 7 8 9 10 11 12 13 14 15 16 17

000
FTUS43 KMPX 240524
TAFAXN
TAF
KAXN 240524Z 2406/2506 08007KT P6SM BKN050 OVC100
     FM241500 10010KT P6SM VCSH OVC050
     FM241900 10012KT P6SM -RA OVC025
     FM250300 08010KT 4SM -RA BR OVC020=

USA.gov is the U.S. government's official web portal to all federal, state and local government web resources and services.